Time;durP1;ratioP1;P1;durP2;ratioP2;P2;SDS_P1;SDS_P2;PMS_P1;PMS_P2;Temp;Humidity;BMP_temperature;BMP_pressure;BME280_temperature;BME280_humidity;BME280_pressure;Samples;Min_cycle;Max_cycle;Signal;HPM_P1;HPM_P2
2023/09/23 00:07:31;;;;;;;3.92;0.65;;;;;;;11.79;100.00;97434.41;18564253;32;20071;-58
2023/09/23 00:17:35;;;;;;;2.25;0.50;;;;;;;11.75;100.00;97447.72;18564353;32;20144;-58
2023/09/23 00:27:39;;;;;;;4.45;0.32;;;;;;;11.72;100.00;97444.75;18563334;32;20053;-58
2023/09/23 00:37:43;;;;;;;2.40;0.43;;;;;;;11.56;100.00;97435.97;18562582;31;20376;-58
2023/09/23 00:47:46;;;;;;;11.43;0.82;;;;;;;11.47;100.00;97428.44;18561719;31;20052;-58
2023/09/23 00:57:52;;;;;;;1.40;0.50;;;;;;;11.36;100.00;97449.34;18561738;32;20053;-58
2023/09/23 01:08:04;;;;;;;2.22;0.40;;;;;;;11.22;100.00;97458.38;18546945;32;20123;-58
2023/09/23 01:18:08;;;;;;;1.67;0.30;;;;;;;11.05;100.00;97467.66;18560923;32;20104;-57
2023/09/23 01:28:14;;;;;;;5.82;0.57;;;;;;;10.90;100.00;97475.84;18546323;32;20053;-58
2023/09/23 01:38:16;;;;;;;9.60;0.80;;;;;;;10.76;100.00;97479.13;18560080;32;20052;-57
2023/09/23 01:48:19;;;;;;;3.75;0.47;;;;;;;10.64;100.00;97489.44;18559393;32;20052;-57
2023/09/23 01:58:22;;;;;;;6.15;0.73;;;;;;;10.55;100.00;97496.47;18544907;32;20088;-57
2023/09/23 02:08:25;;;;;;;3.22;0.30;;;;;;;10.50;100.00;97508.94;18559136;32;20048;-57
2023/09/23 02:18:27;;;;;;;6.28;0.57;;;;;;;10.44;100.00;97526.25;18559248;32;20071;-57
2023/09/23 02:28:29;;;;;;;0.98;0.40;;;;;;;10.40;100.00;97519.78;18564636;31;20107;-58
2023/09/23 02:38:32;;;;;;;4.32;0.60;;;;;;;10.29;100.00;97523.53;18570149;32;20106;-57
2023/09/23 02:48:34;;;;;;;1.80;0.50;;;;;;;10.19;100.00;97532.44;18569115;32;20109;-57
2023/09/23 02:58:38;;;;;;;5.82;1.08;;;;;;;10.18;100.00;97534.34;18554785;32;20052;-58
2023/09/23 03:08:43;;;;;;;3.73;0.60;;;;;;;10.27;100.00;97558.12;18554237;32;20048;-58
2023/09/23 03:18:59;;;;;;;4.18;0.65;;;;;;;10.28;100.00;97544.34;18567818;32;20437;-57
2023/09/23 03:29:06;;;;;;;2.97;0.40;;;;;;;10.30;100.00;97554.87;18551931;31;20111;-57
2023/09/23 03:39:09;;;;;;;4.93;0.80;;;;;;;10.25;100.00;97562.97;18565615;32;20440;-58
2023/09/23 03:49:11;;;;;;;1.52;0.32;;;;;;;10.16;100.00;97578.94;18565572;32;20445;-57
2023/09/23 03:59:14;;;;;;;0.70;0.40;;;;;;;10.18;100.00;97576.75;18537626;32;20418;-57
2023/09/23 04:09:17;;;;;;;0.98;0.43;;;;;;;10.18;100.00;97577.56;18550206;32;20064;-58
2023/09/23 04:19:19;;;;;;;2.78;0.80;;;;;;;10.17;100.00;97589.47;18549756;31;20056;-58
2023/09/23 04:29:21;;;;;;;2.80;0.45;;;;;;;10.10;100.00;97591.63;18563222;32;20104;-57
2023/09/23 04:39:24;;;;;;;4.87;0.62;;;;;;;10.00;100.00;97589.72;18548669;32;20052;-57
2023/09/23 04:49:27;;;;;;;1.85;0.30;;;;;;;9.90;100.00;97603.19;18561626;32;20052;-57
2023/09/23 04:59:32;;;;;;;10.20;0.82;;;;;;;9.84;100.00;97604.28;18561597;32;20052;-57
2023/09/23 05:09:34;;;;;;;2.43;0.40;;;;;;;9.75;100.00;97614.78;18561285;32;20087;-57
2023/09/23 05:19:38;;;;;;;1.42;0.25;;;;;;;9.69;100.00;97632.06;18546376;32;20048;-57
2023/09/23 05:29:43;;;;;;;3.13;0.90;;;;;;;9.51;100.00;97638.75;18560459;32;20036;-57
2023/09/23 05:39:46;;;;;;;1.10;0.30;;;;;;;9.44;100.00;97655.16;18560204;32;20049;-57
2023/09/23 05:49:48;;;;;;;3.33;0.45;;;;;;;9.39;100.00;97673.22;18545340;32;20125;-57
2023/09/23 05:59:51;;;;;;;2.13;1.40;;;;;;;9.40;100.00;97686.47;18547310;32;20067;-57
2023/09/23 06:09:55;;;;;;;2.73;2.03;;;;;;;9.40;100.00;97691.84;18557382;32;20338;-57
2023/09/23 06:19:59;;;;;;;2.50;0.87;;;;;;;9.46;100.00;97715.06;18557501;32;20097;-57
2023/09/23 06:30:02;;;;;;;3.67;0.45;;;;;;;9.53;100.00;97717.53;18570516;32;20411;-57
2023/09/23 06:40:06;;;;;;;2.43;0.43;;;;;;;9.53;100.00;97732.94;18570084;32;20108;-57
2023/09/23 06:50:10;;;;;;;1.00;0.27;;;;;;;9.58;100.00;97751.84;18569010;32;20057;-57
2023/09/23 07:00:13;;;;;;;2.33;0.57;;;;;;;9.62;100.00;97764.56;18568849;31;20060;-57
2023/09/23 07:10:15;;;;;;;2.25;0.60;;;;;;;9.69;100.00;97785.94;18568015;32;20048;-57
2023/09/23 07:20:19;;;;;;;2.08;0.80;;;;;;;9.95;100.00;97796.88;18567529;32;20044;-57
2023/09/23 07:30:21;;;;;;;2.40;0.50;;;;;;;10.35;100.00;97803.56;18566636;32;20433;-57
2023/09/23 07:40:24;;;;;;;1.02;0.50;;;;;;;10.76;100.00;97822.59;18566292;32;20077;-57
2023/09/23 07:50:27;;;;;;;5.25;0.65;;;;;;;10.99;100.00;97823.16;18565760;32;20065;-57
2023/09/23 08:00:30;;;;;;;3.08;0.57;;;;;;;11.28;100.00;97836.19;18564915;32;20071;-57
2023/09/23 08:10:32;;;;;;;2.78;0.43;;;;;;;11.72;100.00;97859.16;18564905;32;20131;-57
2023/09/23 08:20:35;;;;;;;1.23;0.50;;;;;;;12.11;100.00;97874.87;18563604;32;20053;-57
2023/09/23 08:30:38;;;;;;;0.93;0.52;;;;;;;12.51;100.00;97878.53;18562959;32;20081;-57
2023/09/23 08:40:44;;;;;;;0.60;0.30;;;;;;;12.83;100.00;97877.31;18562619;32;20056;-57
2023/09/23 08:50:51;;;;;;;0.98;0.40;;;;;;;13.18;100.00;97879.00;18562028;32;20053;-57
2023/09/23 09:00:55;;;;;;;0.70;0.30;;;;;;;13.43;100.00;97898.97;18561807;32;20424;-57
2023/09/23 09:10:59;;;;;;;0.57;0.23;;;;;;;13.68;100.00;97908.00;18546908;32;20089;-57
2023/09/23 09:21:08;;;;;;;;;;;;;;;14.06;100.00;97900.06;18561375;32;20064;-57
2023/09/23 09:31:13;;;;;;;2.20;0.25;;;;;;;14.32;100.00;97891.59;18546263;32;20011;-58
2023/09/23 09:41:25;;;;;;;0.88;0.40;;;;;;;14.70;100.00;97900.75;18570180;32;20056;-58
2023/09/23 09:51:30;;;;;;;0.90;0.37;;;;;;;15.16;100.00;97909.41;18572161;32;20063;-57
2023/09/23 10:01:35;;;;;;;3.40;0.50;;;;;;;15.30;100.00;97909.47;18572303;32;20333;-58
2023/09/23 10:11:39;;;;;;;1.05;0.40;;;;;;;15.12;100.00;97914.59;18571828;32;20377;-58
2023/09/23 10:21:45;;;;;;;1.02;0.20;;;;;;;15.10;100.00;97907.84;18556834;32;20481;-58
2023/09/23 10:31:48;;;;;;;2.00;0.30;;;;;;;15.37;100.00;97907.97;18570510;32;20101;-58
2023/09/23 10:41:52;;;;;;;0.62;0.30;;;;;;;15.79;100.00;97910.03;18556377;31;20060;-58
2023/09/23 10:51:56;;;;;;;2.20;0.40;;;;;;;16.11;100.00;97911.19;18568863;31;20049;-58
2023/09/23 11:01:59;;;;;;;1.62;0.37;;;;;;;16.19;100.00;97908.56;18569354;32;20087;-58
2023/09/23 11:12:16;;;;;;;0.70;0.30;;;;;;;16.27;100.00;97915.25;18554260;32;20369;-58
2023/09/23 11:22:26;;;;;;;2.25;0.50;;;;;;;16.50;100.00;97923.53;18567648;32;20424;-57
2023/09/23 11:32:28;;;;;;;1.10;0.73;;;;;;;16.65;100.00;97920.53;18567165;32;20069;-58
2023/09/23 11:42:31;;;;;;;0.93;0.30;;;;;;;16.91;100.00;97918.13;18551537;32;20057;-58
2023/09/23 11:52:34;;;;;;;0.57;0.30;;;;;;;16.69;100.00;97920.72;18551153;32;20481;-58
2023/09/23 12:02:39;;;;;;;1.50;0.57;;;;;;;16.96;100.00;97910.94;18564519;32;20056;-58
2023/09/23 12:12:43;;;;;;;0.98;0.35;;;;;;;17.39;100.00;97914.06;18564647;32;20141;-57
2023/09/23 12:22:46;;;;;;;1.85;0.40;;;;;;;17.92;100.00;97920.75;18563778;32;20056;-57
2023/09/23 12:32:48;;;;;;;1.35;0.52;;;;;;;18.40;100.00;97921.16;18548969;31;20052;-57
2023/09/23 12:42:52;;;;;;;1.00;0.50;;;;;;;18.86;100.00;97924.56;18548845;32;20440;-57
2023/09/23 12:52:55;;;;;;;2.37;0.50;;;;;;;19.11;100.00;97925.75;18561805;32;20536;-57
2023/09/23 13:02:58;;;;;;;1.90;0.50;;;;;;;19.15;100.00;97929.47;18561780;32;20368;-57
2023/09/23 13:13:01;;;;;;;0.70;0.40;;;;;;;19.38;100.00;97926.59;18561053;32;20083;-57
2023/09/23 13:23:05;;;;;;;2.25;0.43;;;;;;;19.37;100.00;97925.78;18560569;32;20061;-57
2023/09/23 13:33:08;;;;;;;2.78;0.50;;;;;;;19.38;100.00;97930.16;18545777;32;20445;-57
2023/09/23 13:43:11;;;;;;;;;;;;;;;19.17;79.04;97924.50;18546391;32;20378;-57
2023/09/23 13:53:14;;;;;;;1.60;0.43;;;;;;;18.89;98.60;97943.91;18559518;32;19968;-55
2023/09/23 14:03:18;;;;;;;1.10;0.50;;;;;;;18.40;100.00;97948.53;18559460;32;20052;-57
2023/09/23 14:13:21;;;;;;;1.50;0.60;;;;;;;17.84;100.00;97954.31;18545230;32;20105;-57
2023/09/23 14:23:24;;;;;;;0.90;0.43;;;;;;;18.05;100.00;97949.16;18563550;31;20447;-57
2023/09/23 14:33:27;;;;;;;1.07;0.57;;;;;;;18.02;100.00;97960.72;18570870;32;20105;-57
2023/09/23 14:43:30;;;;;;;1.00;0.50;;;;;;;17.98;100.00;97958.91;18570149;32;20068;-57
2023/09/23 14:53:34;;;;;;;1.00;0.55;;;;;;;17.97;100.00;97971.00;18569179;31;20118;-57
2023/09/23 15:03:37;;;;;;;0.73;0.30;;;;;;;17.80;100.00;97986.09;18569202;32;20487;-57
2023/09/23 15:13:40;;;;;;;;;;;;;;;17.60;100.00;98004.59;18568384;32;20101;-56
2023/09/23 15:23:43;;;;;;;3.53;0.40;;;;;;;17.32;100.00;98003.87;18553762;32;19944;-57
2023/09/23 15:33:46;;;;;;;1.27;0.30;;;;;;;17.09;95.27;98033.03;18566813;32;20068;-56
2023/09/23 15:43:49;;;;;;;0.62;0.37;;;;;;;16.81;100.00;98027.53;18552339;32;20076;-56
2023/09/23 15:53:52;;;;;;;1.30;0.70;;;;;;;16.40;100.00;98041.91;18565392;32;20053;-57
2023/09/23 16:03:59;;;;;;;1.45;0.70;;;;;;;16.02;100.00;98056.44;18565027;32;20112;-57
2023/09/23 16:14:17;;;;;;;0.82;0.40;;;;;;;15.69;100.00;98061.78;18564345;31;20119;-57
2023/09/23 16:24:41;;;;;;;1.58;0.50;;;;;;;15.35;100.00;98079.13;18563867;32;20060;-57
2023/09/23 16:34:56;;;;;;;0.80;0.30;;;;;;;15.03;100.00;98077.84;18551112;32;20048;-57
2023/09/23 16:44:59;;;;;;;0.62;0.30;;;;;;;14.74;100.00;98094.19;18562461;32;20071;-56
2023/09/23 16:55:02;;;;;;;0.93;0.30;;;;;;;14.45;100.00;98102.34;18495681;32;20120;-56
2023/09/23 17:05:05;;;;;;;0.57;0.30;;;;;;;14.11;100.00;98109.38;18496632;32;20057;-56
2023/09/23 17:15:09;;;;;;;0.68;0.20;;;;;;;13.87;100.00;98123.66;18495096;32;20041;-56
2023/09/23 17:25:11;;;;;;;1.67;0.40;;;;;;;13.64;100.00;98143.34;18495864;32;20049;-56
2023/09/23 17:35:15;;;;;;;2.72;1.10;;;;;;;13.41;100.00;98151.03;18494861;32;20118;-56
2023/09/23 17:45:19;;;;;;;3.07;0.93;;;;;;;13.17;100.00;98173.34;18495310;32;20378;-56
2023/09/23 17:55:21;;;;;;;1.10;0.60;;;;;;;12.99;100.00;98179.31;18494847;32;20073;-55
2023/09/23 18:05:24;;;;;;;2.53;0.52;;;;;;;12.84;100.00;98188.28;18507689;32;20112;-56
2023/09/23 18:15:29;;;;;;;1.42;0.50;;;;;;;12.71;100.00;98204.03;18506907;32;20403;-57
2023/09/23 18:25:32;;;;;;;0.90;0.43;;;;;;;12.60;100.00;98224.09;18506490;32;20407;-57
2023/09/23 18:35:35;;;;;;;1.67;0.68;;;;;;;12.43;100.00;98240.63;18505552;32;20069;-57
2023/09/23 18:45:42;;;;;;;;;;;;;;;12.31;100.00;98253.63;18505317;32;20057;-57
2023/09/23 18:55:45;;;;;;;;;;;;;;;12.17;100.00;98267.66;18504031;32;19952;-57
2023/09/23 19:05:48;;;;;;;2.37;1.40;;;;;;;12.06;100.00;98284.97;18489825;32;19941;-57
2023/09/23 19:15:51;;;;;;;5.30;2.60;;;;;;;11.99;100.00;98306.91;18502039;32;20075;-57
2023/09/23 19:25:54;;;;;;;11.12;5.90;;;;;;;12.00;100.00;98307.69;18502794;32;20052;-57
2023/09/23 19:35:57;;;;;;;6.87;3.90;;;;;;;11.94;100.00;98331.25;18501948;32;20094;-57
2023/09/23 19:45:59;;;;;;;6.53;3.00;;;;;;;11.83;100.00;98334.97;18502124;32;20060;-57
2023/09/23 19:56:02;;;;;;;7.37;2.42;;;;;;;11.74;100.00;98347.34;18551419;31;20053;-57
2023/09/23 20:06:04;;;;;;;4.35;1.83;;;;;;;11.60;100.00;98352.41;18565254;32;20504;-57
2023/09/23 20:16:07;;;;;;;3.92;1.42;;;;;;;11.46;100.00;98365.59;18564557;32;20071;-57
2023/09/23 20:26:10;;;;;;;4.93;1.40;;;;;;;11.35;100.00;98380.94;18563234;32;20056;-57
2023/09/23 20:36:14;;;;;;;9.23;1.42;;;;;;;11.20;100.00;98392.44;18563307;32;20435;-57
2023/09/23 20:46:16;;;;;;;4.75;1.37;;;;;;;11.10;100.00;98395.84;18562269;32;20095;-57
2023/09/23 20:56:20;;;;;;;6.20;1.30;;;;;;;11.10;100.00;98409.41;18562494;32;20057;-57
2023/09/23 21:06:23;;;;;;;3.27;1.13;;;;;;;11.13;100.00;98427.81;18562012;32;20065;-57
2023/09/23 21:16:27;;;;;;;5.60;1.05;;;;;;;11.20;100.00;98430.31;18561278;32;20048;-57
2023/09/23 21:26:30;;;;;;;8.20;1.33;;;;;;;11.26;100.00;98439.31;18561459;32;20380;-57
2023/09/23 21:36:38;;;;;;;4.93;1.10;;;;;;;11.29;100.00;98449.62;18560335;32;20057;-56
2023/09/23 21:46:41;;;;;;;2.33;0.95;;;;;;;11.26;100.00;98467.19;18559631;32;20045;-57
2023/09/23 21:56:43;;;;;;;6.95;1.10;;;;;;;11.22;100.00;98457.12;18559831;32;20065;-57
2023/09/23 22:06:49;;;;;;;6.90;1.63;;;;;;;11.17;100.00;98453.31;18559362;32;20075;-57
2023/09/23 22:16:54;;;;;;;2.08;1.00;;;;;;;11.08;100.00;98456.72;18559519;32;20075;-57
2023/09/23 22:26:57;;;;;;;4.47;1.20;;;;;;;10.95;100.00;98455.22;18559031;32;20487;-57
2023/09/23 22:36:59;;;;;;;6.65;1.42;;;;;;;10.84;100.00;98465.94;18558409;32;20424;-56
2023/09/23 22:47:04;;;;;;;3.10;1.08;;;;;;;10.76;100.00;98450.12;18551834;32;20045;-56
2023/09/23 22:57:07;;;;;;;3.50;1.20;;;;;;;10.64;100.00;98444.84;18570026;32;20424;-57
2023/09/23 23:07:11;;;;;;;3.72;1.80;;;;;;;10.61;100.00;98461.59;18568666;32;20127;-56
2023/09/23 23:17:13;;;;;;;4.47;1.10;;;;;;;10.42;100.00;98458.34;18568737;32;20053;-57
2023/09/23 23:27:16;;;;;;;7.32;1.30;;;;;;;10.23;100.00;98471.28;18553913;32;20048;-57
2023/09/23 23:37:19;;;;;;;5.10;1.08;;;;;;;10.13;100.00;98471.97;18567001;32;20406;-57
2023/09/23 23:47:22;;;;;;;2.57;1.00;;;;;;;10.06;100.00;98476.72;18566224;32;20095;-56
2023/09/23 23:57:25;;;;;;;1.20;0.73;;;;;;;9.96;100.00;98476.56;18564961;32;20106;-57
